createdAt,value
2022-10-05T00:01:21.062Z,9.00
2022-10-05T00:03:48.259Z,9.45
2022-10-05T00:06:15.510Z,9.46
2022-10-05T00:08:42.409Z,9.29
2022-10-05T00:11:09.593Z,9.01
2022-10-05T00:13:36.490Z,8.97
2022-10-05T00:16:17.079Z,9.41
2022-10-05T00:18:51.924Z,9.56
2022-10-05T00:21:23.185Z,9.35
2022-10-05T00:23:50.475Z,9.20
2022-10-05T00:26:22.127Z,8.98
2022-10-05T00:28:49.343Z,9.24
2022-10-05T00:31:24.314Z,9.52
2022-10-05T00:33:51.649Z,9.37
2022-10-05T00:36:18.779Z,9.17
2022-10-05T00:38:45.826Z,9.00
2022-10-05T00:41:18.753Z,9.33
2022-10-05T00:44:04.142Z,9.61
2022-10-05T00:46:57.662Z,9.51
2022-10-05T00:49:46.457Z,9.35
2022-10-05T00:52:28.783Z,9.19
2022-10-05T00:55:19.729Z,9.40
2022-10-05T00:57:59.426Z,9.72
2022-10-05T01:00:26.461Z,9.58
2022-10-05T01:03:22.170Z,9.42
2022-10-05T01:05:58.653Z,9.23
2022-10-05T01:08:50.828Z,9.43
2022-10-05T01:11:28.384Z,9.80
2022-10-05T01:14:22.618Z,9.78
2022-10-05T01:16:52.130Z,9.51
2022-10-05T01:19:44.365Z,9.28
2022-10-05T01:22:52.481Z,9.41
2022-10-05T01:25:47.678Z,9.77
2022-10-05T01:28:18.866Z,9.83
2022-10-05T01:31:09.002Z,9.62
2022-10-05T01:33:48.761Z,9.39
2022-10-05T01:36:28.895Z,9.57
2022-10-05T01:39:17.559Z,10.01
2022-10-05T01:42:18.160Z,10.05
2022-10-05T01:44:51.693Z,9.88
2022-10-05T01:47:46.074Z,9.63
2022-10-05T01:50:28.954Z,9.45
2022-10-05T01:53:02.048Z,10.01
2022-10-05T01:55:32.337Z,10.17
2022-10-05T01:58:04.062Z,10.01
2022-10-05T02:00:33.405Z,9.90
2022-10-05T02:03:05.072Z,9.73
2022-10-05T02:05:41.421Z,9.95
2022-10-05T02:08:37.424Z,10.28
2022-10-05T02:11:09.190Z,10.15
2022-10-05T02:13:58.953Z,9.99
2022-10-05T02:16:33.615Z,9.74
2022-10-05T02:19:14.824Z,9.61
2022-10-05T02:21:45.010Z,10.09
2022-10-05T02:24:19.270Z,10.28
2022-10-05T02:26:46.407Z,10.17
2022-10-05T02:29:13.618Z,9.90
2022-10-05T02:31:46.158Z,9.73
2022-10-05T02:34:30.028Z,9.74
2022-10-05T02:37:34.524Z,10.20
2022-10-05T02:40:14.302Z,10.27
2022-10-05T02:43:00.521Z,10.04
2022-10-05T02:45:30.849Z,9.78
2022-10-05T02:48:11.519Z,9.66
2022-10-05T02:51:01.666Z,10.09
2022-10-05T02:53:37.193Z,10.46
2022-10-05T02:56:28.844Z,10.29
2022-10-05T02:59:21.828Z,10.04
2022-10-05T03:01:50.961Z,9.79
2022-10-05T03:04:34.426Z,9.61
2022-10-05T03:07:18.263Z,10.00
2022-10-05T03:12:20.425Z,10.21
2022-10-05T03:14:56.781Z,9.94
2022-10-05T03:17:31.068Z,9.68
2022-10-05T03:20:26.343Z,9.54
2022-10-05T03:22:58.818Z,9.98
2022-10-05T03:25:47.775Z,10.15
2022-10-05T03:28:31.879Z,10.03
2022-10-05T03:31:03.626Z,9.76
2022-10-05T03:33:37.979Z,9.52
2022-10-05T03:36:18.937Z,9.60
2022-10-05T03:39:09.565Z,9.99
2022-10-05T03:41:59.932Z,9.89
2022-10-05T03:45:09.096Z,9.62
2022-10-05T03:47:45.872Z,9.35
2022-10-05T03:50:52.041Z,9.45
2022-10-05T03:53:21.033Z,9.81
2022-10-05T03:55:48.897Z,9.79
2022-10-05T03:58:32.019Z,9.56
2022-10-05T04:01:02.462Z,9.26
2022-10-05T04:03:41.370Z,9.23
2022-10-05T04:06:13.684Z,9.62
2022-10-05T04:08:47.782Z,9.59
2022-10-05T04:11:21.799Z,9.45
2022-10-05T04:14:01.508Z,9.26
2022-10-05T04:16:34.961Z,9.15
2022-10-05T04:19:17.618Z,9.59
2022-10-05T04:21:49.232Z,9.72
2022-10-05T04:24:34.959Z,9.57
2022-10-05T04:27:15.129Z,9.34
2022-10-05T04:29:53.939Z,9.13
2022-10-05T04:32:42.506Z,9.56
2022-10-05T04:35:16.191Z,9.85
2022-10-05T04:37:58.395Z,9.63
2022-10-05T04:40:37.832Z,9.35
2022-10-05T04:43:30.085Z,9.14
2022-10-05T04:46:25.640Z,9.34
2022-10-05T04:49:19.078Z,9.66
2022-10-05T04:52:02.294Z,9.49
2022-10-05T04:55:05.272Z,9.18
2022-10-05T04:58:17.074Z,9.07
2022-10-05T05:01:02.369Z,9.51
2022-10-05T05:04:00.651Z,9.42
2022-10-05T05:06:37.441Z,9.19
2022-10-05T05:09:35.686Z,9.02
2022-10-05T05:12:09.481Z,9.07
2022-10-05T05:14:59.215Z,9.23
2022-10-05T05:17:47.532Z,9.24
2022-10-05T05:20:28.206Z,8.93
2022-10-05T05:23:07.708Z,8.84
2022-10-05T05:25:44.386Z,8.95
2022-10-05T05:28:34.032Z,9.20
2022-10-05T05:31:10.463Z,9.12
2022-10-05T05:34:03.511Z,8.96
2022-10-05T05:36:49.213Z,8.74
2022-10-05T05:39:29.685Z,8.91
2022-10-05T05:42:00.554Z,9.02
2022-10-05T05:44:33.278Z,8.90
2022-10-05T05:47:05.432Z,8.79
2022-10-05T05:50:01.783Z,8.64
2022-10-05T05:52:45.488Z,8.84
2022-10-05T05:55:34.484Z,9.12
2022-10-05T05:58:17.189Z,9.03
2022-10-05T06:01:20.301Z,8.99
2022-10-05T06:03:59.996Z,8.99
2022-10-05T06:06:30.778Z,8.94
2022-10-05T06:09:00.831Z,9.33
2022-10-05T06:12:23.711Z,9.48
2022-10-05T06:14:53.486Z,9.30
2022-10-05T06:17:39.439Z,9.10
2022-10-05T06:20:14.129Z,9.06
2022-10-05T06:22:42.823Z,9.34
2022-10-05T06:25:17.234Z,9.72
2022-10-05T06:28:09.767Z,9.66
2022-10-05T06:31:33.303Z,9.43
2022-10-05T06:34:19.522Z,9.30
2022-10-05T06:36:51.634Z,9.64
2022-10-05T06:39:44.264Z,9.91
2022-10-05T06:42:23.603Z,10.06
2022-10-05T06:45:54.310Z,9.89
2022-10-05T06:48:53.950Z,9.58
2022-10-05T06:52:27.733Z,9.79
2022-10-05T06:55:18.464Z,10.55
2022-10-05T06:58:15.334Z,10.74
2022-10-05T07:01:04.445Z,10.86
2022-10-05T07:03:44.270Z,10.70
2022-10-05T07:06:34.599Z,10.56
2022-10-05T07:09:08.833Z,10.54
2022-10-05T07:11:41.754Z,11.11
2022-10-05T07:14:31.510Z,11.55
2022-10-05T07:17:08.681Z,11.39
2022-10-05T07:20:22.522Z,11.47
2022-10-05T07:23:14.519Z,11.40
2022-10-05T07:25:46.826Z,11.46
2022-10-05T07:28:41.482Z,11.45
2022-10-05T07:31:24.852Z,11.21
2022-10-05T07:34:09.963Z,11.62
2022-10-05T07:37:02.572Z,12.08
2022-10-05T07:40:00.442Z,12.33
2022-10-05T07:42:44.564Z,12.55
2022-10-05T07:45:24.934Z,12.37
2022-10-05T07:47:55.336Z,12.27
2022-10-05T07:50:30.001Z,12.19
2022-10-05T07:53:07.192Z,12.18
2022-10-05T07:55:37.109Z,12.03
2022-10-05T07:58:23.710Z,12.11
2022-10-05T08:01:17.175Z,12.06
2022-10-05T08:04:11.357Z,12.03
2022-10-05T08:06:51.274Z,11.95
2022-10-05T08:09:33.903Z,11.84
2022-10-05T08:12:24.106Z,11.89
2022-10-05T08:15:03.558Z,11.67
2022-10-05T08:17:46.260Z,11.69
2022-10-05T08:20:37.842Z,11.81
2022-10-05T08:23:10.984Z,11.89
2022-10-05T08:26:05.570Z,11.87
2022-10-05T08:28:38.954Z,12.03
2022-10-05T08:31:06.273Z,12.10
2022-10-05T08:34:00.070Z,12.17
2022-10-05T08:36:39.561Z,12.30
2022-10-05T08:39:12.625Z,12.44
2022-10-05T08:41:54.986Z,12.64
2022-10-05T08:45:03.477Z,12.64
2022-10-05T08:47:52.510Z,12.75
2022-10-05T08:50:35.050Z,12.64
2022-10-05T08:53:12.471Z,12.62
2022-10-05T08:56:19.718Z,12.83
2022-10-05T08:59:09.132Z,13.38
2022-10-05T09:02:01.305Z,13.69
2022-10-05T09:04:50.476Z,13.68
2022-10-05T09:07:38.817Z,13.27
2022-10-05T09:10:41.504Z,13.45
2022-10-05T09:13:24.425Z,13.71
2022-10-05T09:16:03.956Z,14.13
2022-10-05T09:18:53.082Z,14.40
2022-10-05T09:22:02.471Z,14.68
2022-10-05T09:25:02.082Z,14.90
2022-10-05T09:27:37.214Z,14.71
2022-10-05T09:30:19.523Z,14.38
2022-10-05T09:33:08.171Z,14.33
2022-10-05T09:36:05.483Z,14.10
2022-10-05T09:39:10.602Z,14.26
2022-10-05T09:42:15.610Z,14.02
2022-10-05T09:45:01.823Z,13.79
2022-10-05T09:48:00.096Z,14.34
2022-10-05T09:50:48.642Z,14.51
2022-10-05T09:53:40.724Z,14.32
2022-10-05T09:56:21.520Z,14.52
2022-10-05T09:59:16.437Z,14.48
2022-10-05T10:01:57.763Z,14.24
2022-10-05T10:05:06.032Z,14.43
2022-10-05T10:07:48.852Z,14.34
2022-10-05T10:10:15.897Z,14.19
2022-10-05T10:12:45.930Z,14.20
2022-10-05T10:15:28.551Z,14.25
2022-10-05T10:18:11.401Z,14.16
2022-10-05T10:20:53.169Z,14.25
2022-10-05T10:23:26.547Z,14.19
2022-10-05T10:26:03.762Z,13.99
2022-10-05T10:28:54.351Z,14.11
2022-10-05T10:32:12.929Z,14.22
2022-10-05T10:34:42.745Z,14.95
2022-10-05T10:37:34.824Z,14.93
2022-10-05T10:40:20.812Z,15.27
2022-10-05T10:43:06.306Z,15.14
2022-10-05T10:45:54.031Z,15.03
2022-10-05T10:48:30.148Z,14.91
2022-10-05T10:51:06.348Z,14.78
2022-10-05T10:53:57.866Z,14.99
2022-10-05T10:56:47.594Z,15.27
2022-10-05T10:59:30.743Z,15.29
2022-10-05T11:02:20.036Z,15.76
2022-10-05T11:04:56.509Z,16.12
2022-10-05T11:07:26.363Z,16.07
2022-10-05T11:10:12.415Z,15.95
2022-10-05T11:12:54.720Z,15.74
2022-10-05T11:15:49.606Z,15.37
2022-10-05T11:18:20.656Z,15.19
2022-10-05T11:21:11.997Z,15.33
2022-10-05T11:23:48.654Z,15.35
2022-10-05T11:26:37.560Z,15.54
2022-10-05T11:29:41.733Z,15.78
2022-10-05T11:32:34.585Z,15.80
2022-10-05T11:35:20.680Z,15.58
2022-10-05T11:38:12.507Z,15.43
2022-10-05T11:41:02.492Z,15.34
2022-10-05T11:43:37.505Z,15.22
2022-10-05T11:46:08.995Z,15.08
2022-10-05T11:48:51.484Z,15.04
2022-10-05T11:51:27.801Z,14.98
2022-10-05T11:54:19.099Z,14.70
2022-10-05T11:57:08.242Z,14.55
2022-10-05T11:59:41.614Z,14.52
2022-10-05T12:02:29.008Z,14.53
2022-10-05T12:05:11.560Z,14.52
2022-10-05T12:08:03.188Z,14.61
2022-10-05T12:11:08.250Z,14.56
2022-10-05T12:13:40.629Z,14.65
2022-10-05T12:16:22.898Z,14.68
2022-10-05T12:19:18.931Z,14.55
2022-10-05T12:22:04.382Z,14.52
2022-10-05T12:24:37.344Z,14.42
2022-10-05T12:27:24.508Z,14.33
2022-10-05T12:29:57.497Z,14.34
2022-10-05T12:33:02.180Z,14.35
2022-10-05T12:35:49.453Z,14.39
2022-10-05T12:38:41.211Z,14.38
2022-10-05T12:41:14.793Z,14.46
2022-10-05T12:43:50.942Z,14.44
2022-10-05T12:46:49.806Z,14.39
2022-10-05T12:49:29.120Z,14.34
2022-10-05T12:52:04.631Z,14.30
2022-10-05T12:54:48.555Z,14.31
2022-10-05T12:57:45.544Z,14.26
2022-10-05T13:00:22.464Z,14.28
2022-10-05T13:03:25.516Z,14.32
2022-10-05T13:06:02.613Z,14.23
2022-10-05T13:08:39.163Z,14.25
2022-10-05T13:11:17.164Z,14.27
2022-10-05T13:13:59.549Z,14.28
2022-10-05T13:16:32.550Z,14.24
2022-10-05T13:19:32.331Z,14.23
2022-10-05T13:22:20.995Z,14.24
2022-10-05T13:25:00.327Z,14.21
2022-10-05T13:27:30.043Z,14.17
2022-10-05T13:30:16.235Z,14.14
2022-10-05T13:32:46.687Z,14.09
2022-10-05T13:35:18.830Z,14.07
2022-10-05T13:38:11.824Z,14.05
2022-10-05T13:40:45.175Z,14.04
2022-10-05T13:43:50.322Z,14.01
2022-10-05T13:46:47.368Z,13.90
2022-10-05T13:49:22.280Z,13.86
2022-10-05T13:52:01.603Z,13.81
2022-10-05T13:54:52.858Z,13.77
2022-10-05T13:58:07.923Z,13.75
2022-10-05T14:00:41.781Z,13.73
2022-10-05T14:03:30.405Z,13.73
2022-10-05T14:05:59.436Z,13.71
2022-10-05T14:08:36.412Z,13.70
2022-10-05T14:11:21.476Z,13.70
2022-10-05T14:13:48.583Z,13.68
2022-10-05T14:16:23.710Z,13.67
2022-10-05T14:18:59.771Z,13.65
2022-10-05T14:21:29.729Z,13.61
2022-10-05T14:23:59.813Z,13.59
2022-10-05T14:26:27.581Z,13.54
2022-10-05T14:29:20.842Z,13.49
2022-10-05T14:32:00.247Z,13.42
2022-10-05T14:34:35.134Z,13.34
2022-10-05T14:37:23.360Z,13.27
2022-10-05T14:39:52.072Z,13.90
2022-10-05T14:42:20.443Z,14.24
2022-10-05T14:44:59.531Z,14.23
2022-10-05T14:47:30.472Z,14.12
2022-10-05T14:50:14.232Z,13.90
2022-10-05T14:52:51.667Z,13.68
2022-10-05T14:55:38.006Z,13.51
2022-10-05T14:58:17.365Z,13.34
2022-10-05T15:01:13.948Z,13.24
2022-10-05T15:03:48.813Z,13.11
2022-10-05T15:06:33.677Z,12.94
2022-10-05T15:09:17.464Z,12.84
2022-10-05T15:11:58.701Z,12.79
2022-10-05T15:14:34.767Z,13.48
2022-10-05T15:17:03.608Z,13.99
2022-10-05T15:19:36.986Z,13.99
2022-10-05T15:22:04.096Z,13.80
2022-10-05T15:24:44.247Z,13.54
2022-10-05T15:27:18.035Z,13.26
2022-10-05T15:29:55.791Z,13.07
2022-10-05T15:32:45.019Z,12.88
2022-10-05T15:35:38.906Z,12.71
2022-10-05T15:38:26.764Z,12.52
2022-10-05T15:41:38.588Z,12.41
2022-10-05T15:44:15.116Z,13.12
2022-10-05T15:46:56.658Z,13.42
2022-10-05T15:49:39.502Z,13.33
2022-10-05T15:52:24.168Z,13.13
2022-10-05T15:55:25.209Z,12.80
2022-10-05T15:58:17.757Z,12.52
2022-10-05T16:00:47.777Z,12.28
2022-10-05T16:03:40.908Z,12.06
2022-10-05T16:06:43.743Z,11.97
2022-10-05T16:09:18.149Z,12.54
2022-10-05T16:12:03.450Z,12.67
2022-10-05T16:15:08.984Z,12.55
2022-10-05T16:17:55.521Z,12.28
2022-10-05T16:20:26.083Z,12.06
2022-10-05T16:22:59.830Z,11.87
2022-10-05T16:26:00.986Z,11.75
2022-10-05T16:28:47.686Z,12.27
2022-10-05T16:31:37.639Z,12.46
2022-10-05T16:34:11.169Z,12.34
2022-10-05T16:36:58.969Z,12.10
2022-10-05T16:39:41.374Z,11.87
2022-10-05T16:42:28.913Z,11.67
2022-10-05T16:45:01.357Z,11.57
2022-10-05T16:47:59.253Z,12.01
2022-10-05T16:50:43.383Z,12.20
2022-10-05T16:53:23.482Z,12.04
2022-10-05T16:55:57.463Z,11.86
2022-10-05T16:58:31.482Z,11.68
2022-10-05T17:01:20.078Z,11.48
2022-10-05T17:04:06.015Z,11.37
2022-10-05T17:06:37.400Z,11.98
2022-10-05T17:09:19.766Z,12.22
2022-10-05T17:12:11.084Z,12.10
2022-10-05T17:14:49.606Z,11.87
2022-10-05T17:17:33.338Z,11.61
2022-10-05T17:20:00.263Z,11.34
2022-10-05T17:22:28.667Z,11.18
2022-10-05T17:25:18.437Z,11.09
2022-10-05T17:27:56.403Z,11.68
2022-10-05T17:30:29.636Z,12.01
2022-10-05T17:33:11.970Z,11.90
2022-10-05T17:35:52.207Z,11.79
2022-10-05T17:38:23.755Z,11.50
2022-10-05T17:41:00.540Z,11.26
2022-10-05T17:43:31.574Z,11.08
2022-10-05T17:46:00.797Z,11.36
2022-10-05T17:48:38.059Z,11.60
2022-10-05T17:51:36.378Z,11.47
2022-10-05T17:54:39.547Z,11.28
2022-10-05T17:57:06.680Z,11.07
2022-10-05T17:59:44.806Z,10.97
2022-10-05T18:02:22.236Z,11.42
2022-10-05T18:05:05.093Z,11.70
2022-10-05T18:07:33.612Z,11.72
2022-10-05T18:10:09.958Z,11.65
2022-10-05T18:12:47.337Z,11.46
2022-10-05T18:15:21.439Z,11.20
2022-10-05T18:18:19.110Z,11.08
2022-10-05T18:21:14.369Z,11.58
2022-10-05T18:24:02.468Z,11.86
2022-10-05T18:26:44.848Z,11.73
2022-10-05T18:30:00.378Z,11.50
2022-10-05T18:32:50.025Z,11.19
2022-10-05T18:35:48.321Z,11.09
2022-10-05T18:38:31.456Z,11.63
2022-10-05T18:41:27.146Z,11.89
2022-10-05T18:44:06.492Z,11.72
2022-10-05T18:46:46.118Z,11.52
2022-10-05T18:49:38.317Z,11.23
2022-10-05T18:52:10.826Z,11.08
2022-10-05T18:54:56.851Z,11.41
2022-10-05T18:57:47.174Z,11.56
2022-10-05T19:00:19.289Z,11.48
2022-10-05T19:02:58.728Z,11.27
2022-10-05T19:05:47.522Z,11.12
2022-10-05T19:08:15.551Z,11.16
2022-10-05T19:11:06.068Z,11.54
2022-10-05T19:14:11.599Z,11.62
2022-10-05T19:16:52.270Z,11.42
2022-10-05T19:19:44.023Z,11.25
2022-10-05T19:22:23.536Z,11.16
2022-10-05T19:25:26.379Z,11.63
2022-10-05T19:28:15.656Z,11.85
2022-10-05T19:30:52.370Z,11.68
2022-10-05T19:33:26.473Z,11.47
2022-10-05T19:36:24.731Z,11.27
2022-10-05T19:38:57.829Z,11.23
2022-10-05T19:41:56.330Z,11.69
2022-10-05T19:44:32.595Z,11.92
2022-10-05T19:47:17.865Z,11.78
2022-10-05T19:49:56.997Z,11.60
2022-10-05T19:52:47.542Z,11.40
2022-10-05T19:55:26.373Z,11.25
2022-10-05T19:57:55.103Z,11.62
2022-10-05T20:00:27.578Z,11.77
2022-10-05T20:03:12.509Z,11.66
2022-10-05T20:05:39.822Z,11.55
2022-10-05T20:08:07.470Z,11.38
2022-10-05T20:10:34.615Z,11.25
2022-10-05T20:13:05.169Z,11.64
2022-10-05T20:15:52.388Z,11.92
2022-10-05T20:19:10.713Z,11.88
2022-10-05T20:21:42.289Z,11.65
2022-10-05T20:24:20.488Z,11.43
2022-10-05T20:27:06.940Z,11.29
2022-10-05T20:29:38.731Z,11.47
2022-10-05T20:32:18.024Z,11.95
2022-10-05T20:34:46.682Z,11.93
2022-10-05T20:37:15.682Z,11.80
2022-10-05T20:39:43.100Z,11.56
2022-10-05T20:42:10.255Z,11.37
2022-10-05T20:44:37.535Z,11.27
2022-10-05T20:47:05.835Z,11.63
2022-10-05T20:49:34.567Z,11.92
2022-10-05T20:52:01.618Z,11.89
2022-10-05T20:54:28.869Z,11.73
2022-10-05T20:56:55.959Z,11.56
2022-10-05T20:59:24.189Z,11.36
2022-10-05T21:01:51.580Z,11.26
2022-10-05T21:04:23.301Z,11.60
2022-10-05T21:06:50.492Z,11.83
2022-10-05T21:09:19.678Z,11.76
2022-10-05T21:11:47.540Z,11.61
2022-10-05T21:14:14.668Z,11.54
2022-10-05T21:16:43.090Z,11.28
2022-10-05T21:19:12.296Z,11.36
2022-10-05T21:21:40.517Z,11.76
2022-10-05T21:24:08.283Z,11.80
2022-10-05T21:26:35.222Z,11.70
2022-10-05T21:29:02.785Z,11.51
2022-10-05T21:31:29.971Z,11.41
2022-10-05T21:33:57.392Z,11.31
2022-10-05T21:36:24.837Z,11.66
2022-10-05T21:38:53.123Z,11.94
2022-10-05T21:41:20.751Z,11.93
2022-10-05T21:43:47.938Z,11.79
2022-10-05T21:46:20.401Z,11.62
2022-10-05T21:48:47.678Z,11.42
2022-10-05T21:51:16.862Z,11.26
2022-10-05T21:53:51.165Z,11.65
2022-10-05T21:56:19.402Z,12.01
2022-10-05T21:58:46.502Z,11.89
2022-10-05T22:01:15.934Z,11.74
2022-10-05T22:03:45.273Z,11.48
2022-10-05T22:06:12.558Z,11.34
2022-10-05T22:08:39.707Z,11.21
2022-10-05T22:11:15.408Z,11.57
2022-10-05T22:13:50.189Z,12.03
2022-10-05T22:16:18.609Z,11.99
2022-10-05T22:18:45.818Z,11.74
2022-10-05T22:21:13.378Z,11.49
2022-10-05T22:23:41.287Z,11.26
2022-10-05T22:26:09.213Z,11.05
2022-10-05T22:28:36.903Z,11.33
2022-10-05T22:31:04.972Z,11.59
2022-10-05T22:33:32.132Z,11.62
2022-10-05T22:35:59.758Z,11.48
2022-10-05T22:38:27.032Z,11.33
2022-10-05T22:40:54.356Z,11.10
2022-10-05T22:43:21.387Z,10.86
2022-10-05T22:45:48.381Z,11.14
2022-10-05T22:48:16.230Z,11.44
2022-10-05T22:50:46.891Z,11.49
2022-10-05T22:53:14.106Z,11.23
2022-10-05T22:55:41.259Z,11.01
2022-10-05T22:58:08.313Z,10.72
2022-10-05T23:00:57.059Z,10.66
2022-10-05T23:03:22.366Z,11.20
2022-10-05T23:05:58.604Z,11.28
2022-10-05T23:08:25.932Z,11.11
2022-10-05T23:10:53.346Z,10.87
2022-10-05T23:13:22.741Z,10.71
2022-10-05T23:15:50.095Z,10.56
2022-10-05T23:18:17.351Z,10.94
2022-10-05T23:20:44.326Z,11.43
2022-10-05T23:23:11.335Z,11.43
2022-10-05T23:25:38.389Z,11.32
2022-10-05T23:28:05.492Z,11.10
2022-10-05T23:30:32.650Z,10.86
2022-10-05T23:32:59.839Z,10.65
2022-10-05T23:35:26.982Z,10.88
2022-10-05T23:37:54.080Z,11.25
2022-10-05T23:40:21.296Z,11.26
2022-10-05T23:42:48.475Z,11.12
2022-10-05T23:45:16.504Z,10.87
2022-10-05T23:47:43.551Z,10.59
2022-10-05T23:50:10.735Z,10.44
2022-10-05T23:52:37.856Z,10.81
2022-10-05T23:55:05.867Z,11.09
2022-10-05T23:57:32.897Z,11.09
